createdAt,value
2018-08-03T00:00:23.271Z,99.9
2018-08-03T00:01:23.179Z,99.9
2018-08-03T00:02:23.085Z,99.9
2018-08-03T00:03:22.993Z,99.9
2018-08-03T00:04:22.894Z,99.9
2018-08-03T00:05:22.814Z,99.9
2018-08-03T00:06:22.715Z,99.9
2018-08-03T00:07:22.653Z,99.9
2018-08-03T00:08:22.548Z,99.9
2018-08-03T00:09:22.455Z,99.9
2018-08-03T00:10:22.818Z,99.9
2018-08-03T00:11:22.723Z,99.9
2018-08-03T00:12:22.653Z,99.9
2018-08-03T00:13:22.770Z,99.9
2018-08-03T00:14:22.674Z,99.9
2018-08-03T00:15:22.579Z,99.9
2018-08-03T00:16:22.490Z,99.9
2018-08-03T00:17:22.609Z,99.9
2018-08-03T00:18:22.519Z,99.9
2018-08-03T00:19:22.437Z,99.9
2018-08-03T00:20:22.762Z,99.9
2018-08-03T00:21:22.670Z,99.9
2018-08-03T00:22:25.671Z,99.9
2018-08-03T00:23:25.590Z,99.9
2018-08-03T00:24:25.533Z,99.9
2018-08-03T00:25:28.341Z,99.9
2018-08-03T00:26:31.047Z,99.9
2018-08-03T00:27:30.996Z,99.9
2018-08-03T00:28:30.919Z,99.9
2018-08-03T00:29:30.819Z,99.9
2018-08-03T00:30:35.000Z,99.9
2018-08-03T00:31:34.927Z,99.9
2018-08-03T00:32:34.834Z,99.9
2018-08-03T00:33:34.756Z,99.9
2018-08-03T00:34:38.299Z,99.9
2018-08-03T00:35:38.217Z,99.9
2018-08-03T00:36:38.114Z,99.9
2018-08-03T00:37:38.007Z,99.9
2018-08-03T00:38:37.943Z,99.9
2018-08-03T00:39:38.093Z,99.9
2018-08-03T00:40:38.421Z,99.9
2018-08-03T00:41:38.317Z,99.9
2018-08-03T00:42:38.221Z,99.9
2018-08-03T00:43:38.122Z,99.9
2018-08-03T00:44:38.031Z,99.9
2018-08-03T00:45:37.937Z,99.9
2018-08-03T00:46:37.835Z,99.9
2018-08-03T00:47:37.743Z,99.9
2018-08-03T00:48:37.848Z,99.9
2018-08-03T00:49:37.778Z,99.9
2018-08-03T00:50:40.755Z,99.9
2018-08-03T00:51:40.883Z,99.9
2018-08-03T00:52:40.783Z,99.9
2018-08-03T00:53:40.690Z,99.9
2018-08-03T00:54:40.606Z,99.9
2018-08-03T00:55:44.385Z,99.9
2018-08-03T00:56:44.280Z,99.9
2018-08-03T00:57:44.187Z,99.9
2018-08-03T00:58:44.327Z,99.9
2018-08-03T00:59:44.264Z,99.9
2018-08-03T01:00:44.623Z,99.9
2018-08-03T01:01:44.524Z,99.9
2018-08-03T01:02:44.671Z,99.9
2018-08-03T01:03:44.585Z,99.9
2018-08-03T01:04:44.520Z,99.9
2018-08-03T01:05:44.423Z,99.9
2018-08-03T01:06:44.340Z,99.9
2018-08-03T01:07:44.230Z,99.9
2018-08-03T01:08:44.136Z,99.9
2018-08-03T01:09:44.470Z,99.9
2018-08-03T01:10:44.854Z,99.9
2018-08-03T01:11:45.747Z,99.9
2018-08-03T01:12:45.705Z,99.9
2018-08-03T01:13:45.605Z,99.9
2018-08-03T01:14:45.528Z,99.9
2018-08-03T01:15:45.452Z,99.9
2018-08-03T01:16:45.357Z,99.9
2018-08-03T01:17:45.263Z,99.9
2018-08-03T01:18:46.163Z,99.9
2018-08-03T01:19:46.122Z,99.9
2018-08-03T01:20:46.495Z,99.9
2018-08-03T01:21:46.411Z,99.9
2018-08-03T01:22:46.310Z,99.9
2018-08-03T01:23:46.267Z,99.9
2018-08-03T01:24:46.173Z,99.9
2018-08-03T01:25:46.080Z,99.9
2018-08-03T01:26:46.022Z,99.9
2018-08-03T01:27:46.138Z,99.9
2018-08-03T01:28:46.041Z,99.9
2018-08-03T01:29:45.958Z,99.9
2018-08-03T01:30:46.299Z,99.9
2018-08-03T01:31:46.283Z,99.9
2018-08-03T01:32:46.198Z,99.9
2018-08-03T01:33:46.097Z,99.9
2018-08-03T01:34:46.039Z,99.9
2018-08-03T01:35:45.940Z,99.9
2018-08-03T01:36:46.795Z,99.9
2018-08-03T01:37:46.928Z,99.9
2018-08-03T01:38:46.964Z,99.9
2018-08-03T01:39:46.909Z,99.9
2018-08-03T01:40:47.263Z,99.9
2018-08-03T01:41:47.184Z,99.9
2018-08-03T01:42:50.097Z,99.9
2018-08-03T01:43:50.070Z,99.9
2018-08-03T01:44:49.978Z,99.9
2018-08-03T01:45:49.882Z,99.9
2018-08-03T01:46:50.587Z,99.9
2018-08-03T01:47:50.499Z,99.9
2018-08-03T01:48:50.396Z,99.9
2018-08-03T01:49:50.352Z,99.9
2018-08-03T01:50:50.689Z,99.9
2018-08-03T01:51:50.583Z,99.9
2018-08-03T01:52:50.499Z,99.9
2018-08-03T01:53:50.413Z,99.9
2018-08-03T01:54:50.307Z,99.9
2018-08-03T01:55:50.210Z,99.9
2018-08-03T01:56:52.888Z,99.9
2018-08-03T01:57:52.787Z,99.9
2018-08-03T01:58:52.708Z,99.9
2018-08-03T01:59:55.833Z,99.9
2018-08-03T02:00:56.165Z,99.9
2018-08-03T02:01:56.094Z,99.9
2018-08-03T02:02:56.042Z,99.9
2018-08-03T02:03:55.957Z,99.9
2018-08-03T02:04:56.877Z,99.9
2018-08-03T02:05:56.786Z,99.9
2018-08-03T02:06:56.702Z,99.9
2018-08-03T02:07:56.604Z,99.9
2018-08-03T02:08:57.521Z,99.9
2018-08-03T02:09:57.428Z,99.9
2018-08-03T02:10:57.793Z,99.9
2018-08-03T02:11:57.707Z,99.9
2018-08-03T02:12:57.620Z,99.9
2018-08-03T02:13:57.518Z,99.9
2018-08-03T02:14:57.426Z,99.9
2018-08-03T02:15:57.340Z,99.9
2018-08-03T02:16:58.261Z,99.9
2018-08-03T02:17:58.165Z,99.9
2018-08-03T02:18:58.093Z,99.9
2018-08-03T02:19:58.006Z,99.9
2018-08-03T02:20:58.349Z,99.9
2018-08-03T02:21:58.260Z,99.9
2018-08-03T02:22:58.166Z,99.9
2018-08-03T02:23:58.082Z,99.9
2018-08-03T02:24:58.022Z,99.9
2018-08-03T02:25:57.917Z,99.9
2018-08-03T02:26:57.840Z,99.9
2018-08-03T02:27:57.747Z,99.9
2018-08-03T02:28:57.648Z,99.9
2018-08-03T02:29:57.551Z,99.9
2018-08-03T02:31:00.804Z,99.9
2018-08-03T02:32:01.746Z,99.9
2018-08-03T02:33:04.515Z,99.9
2018-08-03T02:34:04.429Z,99.9
2018-08-03T02:35:04.339Z,99.9
2018-08-03T02:36:04.276Z,99.9
2018-08-03T02:37:04.224Z,99.9
2018-08-03T02:38:04.125Z,99.9
2018-08-03T02:39:12.676Z,99.9
2018-08-03T02:40:12.619Z,99.9
2018-08-03T02:41:13.193Z,99.9
2018-08-03T02:42:13.134Z,99.9
2018-08-03T02:43:13.096Z,99.9
2018-08-03T02:44:13.031Z,99.9
2018-08-03T02:45:12.936Z,99.9
2018-08-03T02:46:13.861Z,99.9
2018-08-03T02:47:13.776Z,99.9
2018-08-03T02:48:13.723Z,99.9
2018-08-03T02:49:13.636Z,99.9
2018-08-03T02:50:13.541Z,99.9
2018-08-03T02:51:13.929Z,99.9
2018-08-03T02:52:13.848Z,99.9
2018-08-03T02:53:13.846Z,99.9
2018-08-03T02:54:13.741Z,99.9
2018-08-03T02:55:13.633Z,99.9
2018-08-03T02:56:14.548Z,99.9
2018-08-03T02:57:14.453Z,99.9
2018-08-03T02:58:15.390Z,99.9
2018-08-03T02:59:15.301Z,99.9
2018-08-03T03:00:15.196Z,99.9
2018-08-03T03:01:15.590Z,99.9
2018-08-03T03:02:15.489Z,99.9
2018-08-03T03:03:15.392Z,99.9
2018-08-03T03:04:15.325Z,99.9
2018-08-03T03:05:16.215Z,99.9
2018-08-03T03:06:16.114Z,99.9
2018-08-03T03:07:16.137Z,99.9
2018-08-03T03:08:16.173Z,99.9
2018-08-03T03:09:16.101Z,99.9
2018-08-03T03:10:15.995Z,99.9
2018-08-03T03:11:16.358Z,99.9
2018-08-03T03:12:16.260Z,99.9
2018-08-03T03:13:16.181Z,99.9
2018-08-03T03:14:16.107Z,99.9
2018-08-03T03:15:16.064Z,99.9
2018-08-03T03:16:15.958Z,99.9
2018-08-03T03:17:15.851Z,99.9
2018-08-03T03:18:15.809Z,99.9
2018-08-03T03:19:15.716Z,99.9
2018-08-03T03:20:15.636Z,99.9
2018-08-03T03:21:16.221Z,99.9
2018-08-03T03:22:16.168Z,99.9
2018-08-03T03:23:16.108Z,99.9
2018-08-03T03:24:16.013Z,99.9
2018-08-03T03:25:15.932Z,99.9
2018-08-03T03:26:15.855Z,99.9
2018-08-03T03:27:15.789Z,99.9
2018-08-03T03:28:15.688Z,99.9
2018-08-03T03:29:15.594Z,99.9
2018-08-03T03:30:15.537Z,99.9
2018-08-03T03:31:15.890Z,99.9
2018-08-03T03:32:15.800Z,99.9
2018-08-03T03:33:15.725Z,99.9
2018-08-03T03:34:15.659Z,99.9
2018-08-03T03:35:15.572Z,99.9
2018-08-03T03:36:15.479Z,99.9
2018-08-03T03:37:15.389Z,99.9
2018-08-03T03:38:15.338Z,99.9
2018-08-03T03:39:15.239Z,99.9
2018-08-03T03:40:15.166Z,99.9
2018-08-03T03:41:15.526Z,99.9
2018-08-03T03:42:15.430Z,99.9
2018-08-03T03:43:15.322Z,99.9
2018-08-03T03:44:15.231Z,99.9
2018-08-03T03:45:15.178Z,99.9
2018-08-03T03:46:15.086Z,99.9
2018-08-03T03:47:15.062Z,99.9
2018-08-03T03:48:14.970Z,99.9
2018-08-03T03:49:14.886Z,99.9
2018-08-03T03:50:14.805Z,99.9
2018-08-03T03:51:15.162Z,99.9
2018-08-03T03:52:15.072Z,99.9
2018-08-03T03:53:14.991Z,99.9
2018-08-03T03:54:15.111Z,99.9
2018-08-03T03:55:15.028Z,99.9
2018-08-03T03:56:14.930Z,99.9
2018-08-03T03:57:14.844Z,99.9
2018-08-03T03:58:14.749Z,99.9
2018-08-03T03:59:14.860Z,99.9
2018-08-03T04:00:15.265Z,99.9
2018-08-03T04:01:15.631Z,99.9
2018-08-03T04:02:15.543Z,99.9
2018-08-03T04:03:15.480Z,99.9
2018-08-03T04:04:15.373Z,99.9
2018-08-03T04:05:15.277Z,99.9
2018-08-03T04:06:15.210Z,99.9
2018-08-03T04:07:15.122Z,99.9
2018-08-03T04:08:15.029Z,99.9
2018-08-03T04:09:14.954Z,99.9
2018-08-03T04:10:14.872Z,99.9
2018-08-03T04:11:15.228Z,99.9
2018-08-03T04:12:15.241Z,99.9
2018-08-03T04:13:15.219Z,99.9
2018-08-03T04:14:15.131Z,99.9
2018-08-03T04:15:15.059Z,99.9
2018-08-03T04:16:14.966Z,99.9
2018-08-03T04:17:14.916Z,99.9
2018-08-03T04:18:14.817Z,99.9
2018-08-03T04:19:14.720Z,99.9
2018-08-03T04:20:14.639Z,99.9
2018-08-03T04:21:17.715Z,99.9
2018-08-03T04:22:17.623Z,99.9
2018-08-03T04:23:17.530Z,99.9
2018-08-03T04:24:17.438Z,99.9
2018-08-03T04:25:17.364Z,99.9
2018-08-03T04:26:17.257Z,99.9
2018-08-03T04:27:17.166Z,99.9
2018-08-03T04:28:17.077Z,99.9
2018-08-03T04:29:17.206Z,99.9
2018-08-03T04:30:17.107Z,99.9
2018-08-03T04:31:17.486Z,99.9
2018-08-03T04:32:17.386Z,99.9
2018-08-03T04:33:17.284Z,99.9
2018-08-03T04:34:17.189Z,99.9
2018-08-03T04:35:17.112Z,99.9
2018-08-03T04:36:17.088Z,99.9
2018-08-03T04:37:17.012Z,99.9
2018-08-03T04:38:17.161Z,99.9
2018-08-03T04:39:17.234Z,99.9
2018-08-03T04:40:17.157Z,99.9
2018-08-03T04:41:17.497Z,99.9
2018-08-03T04:42:17.896Z,99.9
2018-08-03T04:43:18.144Z,99.9
2018-08-03T04:44:18.060Z,99.9
2018-08-03T04:45:17.985Z,99.9
2018-08-03T04:46:17.896Z,99.9
2018-08-03T04:47:17.824Z,99.9
2018-08-03T04:48:20.685Z,99.9
2018-08-03T04:49:20.603Z,99.9
2018-08-03T04:50:20.508Z,99.9
2018-08-03T04:51:20.865Z,99.9
2018-08-03T04:52:20.765Z,99.9
2018-08-03T04:53:20.662Z,99.9
2018-08-03T04:54:20.560Z,99.9
2018-08-03T04:55:20.478Z,99.9
2018-08-03T04:56:20.376Z,99.9
2018-08-03T04:57:20.292Z,99.9
2018-08-03T04:58:20.201Z,99.9
2018-08-03T04:59:20.127Z,99.9
2018-08-03T05:00:20.036Z,99.9
2018-08-03T05:01:20.374Z,99.9
2018-08-03T05:02:20.306Z,99.9
2018-08-03T05:03:20.228Z,99.9
2018-08-03T05:04:21.140Z,99.9
2018-08-03T05:05:21.043Z,99.9
2018-08-03T05:06:20.961Z,99.9
2018-08-03T05:07:23.749Z,99.9
2018-08-03T05:08:23.646Z,99.9
2018-08-03T05:09:23.544Z,99.9
2018-08-03T05:10:23.463Z,99.9
2018-08-03T05:11:23.815Z,99.9
2018-08-03T05:12:23.715Z,99.9
2018-08-03T05:13:23.641Z,99.9
2018-08-03T05:14:23.550Z,99.9
2018-08-03T05:15:23.662Z,99.9
2018-08-03T05:16:23.669Z,99.9
2018-08-03T05:17:23.593Z,99.9
2018-08-03T05:18:23.536Z,99.9
2018-08-03T05:19:23.467Z,99.9
2018-08-03T05:20:23.424Z,99.9
2018-08-03T05:21:24.827Z,99.9
2018-08-03T05:22:24.734Z,99.9
2018-08-03T05:23:27.408Z,99.9
2018-08-03T05:24:27.320Z,99.9
2018-08-03T05:25:27.237Z,99.9
2018-08-03T05:26:27.130Z,99.9
2018-08-03T05:27:27.033Z,99.9
2018-08-03T05:28:26.969Z,99.9
2018-08-03T05:29:26.882Z,99.9
2018-08-03T05:30:27.147Z,99.9
2018-08-03T05:31:28.195Z,99.9
2018-08-03T05:32:28.135Z,99.9
2018-08-03T05:33:28.069Z,99.9
2018-08-03T05:34:27.982Z,99.9
2018-08-03T05:35:28.200Z,99.9
2018-08-03T05:36:28.217Z,99.9
2018-08-03T05:37:28.122Z,99.9
2018-08-03T05:38:28.050Z,99.9
2018-08-03T05:39:28.052Z,99.9
2018-08-03T05:40:27.977Z,99.9
2018-08-03T05:41:28.347Z,99.9
2018-08-03T05:42:28.442Z,99.9
2018-08-03T05:43:28.463Z,99.9
2018-08-03T05:44:28.417Z,99.9
2018-08-03T05:45:28.649Z,99.9
2018-08-03T05:46:28.750Z,99.9
2018-08-03T05:47:28.646Z,99.9
2018-08-03T05:48:28.560Z,99.9
2018-08-03T05:49:28.534Z,99.9
2018-08-03T05:50:28.438Z,99.9
2018-08-03T05:51:28.791Z,99.9
2018-08-03T05:52:29.022Z,99.9
2018-08-03T05:53:29.217Z,99.9
2018-08-03T05:54:29.171Z,99.9
2018-08-03T05:55:29.091Z,99.9
2018-08-03T05:56:28.995Z,99.9
2018-08-03T05:57:28.916Z,99.9
2018-08-03T05:58:28.824Z,99.9
2018-08-03T05:59:28.785Z,99.9
2018-08-03T06:00:28.734Z,99.9
2018-08-03T06:01:29.100Z,99.9
2018-08-03T06:02:29.037Z,99.9
2018-08-03T06:03:28.970Z,99.9
2018-08-03T06:04:28.882Z,99.4
2018-08-03T06:05:28.811Z,99.2
2018-08-03T06:06:28.740Z,99.3
2018-08-03T06:07:28.657Z,99.2
2018-08-03T06:08:28.575Z,98.9
2018-08-03T06:09:28.632Z,99.4
2018-08-03T06:10:28.687Z,99
2018-08-03T06:11:29.041Z,98.8
2018-08-03T06:12:28.988Z,98.6
2018-08-03T06:13:28.916Z,98.5
2018-08-03T06:14:28.832Z,98.3
2018-08-03T06:15:28.734Z,97.9
2018-08-03T06:16:28.648Z,97.6
2018-08-03T06:17:28.692Z,97
2018-08-03T06:18:28.782Z,97.7
2018-08-03T06:19:28.698Z,97.2
2018-08-03T06:20:28.634Z,97.3
2018-08-03T06:21:28.998Z,97.2
2018-08-03T06:22:28.933Z,97.5
2018-08-03T06:23:28.839Z,97.4
2018-08-03T06:24:28.771Z,97
2018-08-03T06:25:28.704Z,97
2018-08-03T06:26:28.651Z,96.8
2018-08-03T06:27:28.556Z,96.4
2018-08-03T06:28:28.663Z,96.6
2018-08-03T06:29:29.137Z,96.4
2018-08-03T06:30:29.245Z,96.1
2018-08-03T06:31:29.710Z,96.1
2018-08-03T06:32:29.637Z,96
2018-08-03T06:33:29.575Z,96
2018-08-03T06:34:29.471Z,96
2018-08-03T06:35:29.420Z,96.1
2018-08-03T06:36:29.344Z,96.3
2018-08-03T06:37:29.270Z,96
2018-08-03T06:38:29.197Z,95.8
2018-08-03T06:39:29.134Z,96.2
2018-08-03T06:40:29.096Z,95.8
2018-08-03T06:41:29.549Z,95.2
2018-08-03T06:42:29.468Z,95.3
2018-08-03T06:43:29.399Z,95.2
2018-08-03T06:44:29.316Z,95
2018-08-03T06:45:29.245Z,94.8
2018-08-03T06:46:29.208Z,94.8
2018-08-03T06:47:29.109Z,94.6
2018-08-03T06:48:29.320Z,94.5
2018-08-03T06:49:29.582Z,94.5
2018-08-03T06:50:29.509Z,94.4
2018-08-03T06:51:29.878Z,94.6
2018-08-03T06:52:29.782Z,94.4
2018-08-03T06:53:29.681Z,94
2018-08-03T06:54:29.596Z,93.8
2018-08-03T06:55:29.534Z,93.8
2018-08-03T06:56:29.478Z,93.7
2018-08-03T06:57:29.651Z,93.9
2018-08-03T06:58:29.780Z,93.5
2018-08-03T06:59:30.854Z,93.5
2018-08-03T07:00:30.859Z,93.2
2018-08-03T07:01:31.517Z,92.7
2018-08-03T07:02:31.450Z,92
2018-08-03T07:03:31.393Z,92.1
2018-08-03T07:04:31.760Z,91.6
2018-08-03T07:05:31.915Z,91.6
2018-08-03T07:06:31.875Z,91.8
2018-08-03T07:07:31.799Z,91.8
2018-08-03T07:08:32.249Z,91.4
2018-08-03T07:09:32.449Z,91.4
2018-08-03T07:10:32.362Z,91.1
2018-08-03T07:11:32.806Z,91
2018-08-03T07:12:32.732Z,90.8
2018-08-03T07:13:32.661Z,90.5
2018-08-03T07:14:32.891Z,90.1
2018-08-03T07:15:35.830Z,90.5
2018-08-03T07:16:35.990Z,90.5
2018-08-03T07:17:39.709Z,90.4
2018-08-03T07:18:39.838Z,90.4
2018-08-03T07:19:39.747Z,90.6
2018-08-03T07:20:39.894Z,90.3
2018-08-03T07:21:43.381Z,90.2
2018-08-03T07:22:46.016Z,89
2018-08-03T07:23:45.947Z,89.2
2018-08-03T07:24:45.877Z,88.4
2018-08-03T07:25:46.040Z,87.8
2018-08-03T07:26:46.079Z,88.5
2018-08-03T07:27:46.008Z,87.5
2018-08-03T07:28:45.931Z,88.7
2018-08-03T07:29:45.860Z,90.3
2018-08-03T07:30:45.788Z,89.5
2018-08-03T07:31:46.151Z,88.6
2018-08-03T07:32:46.109Z,86.8
2018-08-03T07:33:46.057Z,86
2018-08-03T07:34:45.970Z,86.8
2018-08-03T07:35:45.912Z,88.2
2018-08-03T07:36:45.939Z,86.6
2018-08-03T07:37:45.919Z,87.5
2018-08-03T07:38:46.097Z,88.6
2018-08-03T07:39:46.034Z,85.9
2018-08-03T07:40:46.191Z,86.5
2018-08-03T07:41:46.631Z,85.3
2018-08-03T07:42:46.672Z,86.2
2018-08-03T07:43:46.686Z,86.2
2018-08-03T07:44:46.637Z,85.3
2018-08-03T07:45:46.575Z,86.1
2018-08-03T07:46:46.500Z,85.6
2018-08-03T07:47:46.420Z,85.5
2018-08-03T07:48:46.377Z,84.3
2018-08-03T07:49:46.362Z,85.4
2018-08-03T07:50:46.290Z,85.6
2018-08-03T07:51:50.444Z,83.7
2018-08-03T07:52:50.374Z,82.9
2018-08-03T07:53:50.324Z,83.4
2018-08-03T07:54:50.232Z,83.1
2018-08-03T07:55:50.186Z,81.9
2018-08-03T07:56:50.091Z,83.6
2018-08-03T07:57:50.023Z,83.2
2018-08-03T07:58:49.955Z,81
2018-08-03T07:59:49.934Z,82.3
2018-08-03T08:00:49.862Z,83
2018-08-03T08:01:51.277Z,83.8
2018-08-03T08:02:51.214Z,85
2018-08-03T08:03:51.375Z,84.1
2018-08-03T08:04:51.347Z,84.6
2018-08-03T08:05:51.304Z,83.4
2018-08-03T08:06:51.238Z,83.5
2018-08-03T08:07:53.761Z,85.1
2018-08-03T08:08:53.684Z,84
2018-08-03T08:09:53.669Z,82.8
2018-08-03T08:10:56.226Z,82.4
2018-08-03T08:11:56.599Z,82.9
2018-08-03T08:12:59.522Z,83.9
2018-08-03T08:13:59.483Z,83.9
2018-08-03T08:14:59.672Z,83.5
2018-08-03T08:15:59.601Z,83.9
2018-08-03T08:16:59.873Z,83.4
2018-08-03T08:18:00.117Z,83.3
2018-08-03T08:19:00.127Z,82.9
2018-08-03T08:20:01.085Z,83.4
2018-08-03T08:21:01.019Z,84.1
2018-08-03T08:22:01.438Z,83.4
2018-08-03T08:23:01.394Z,84.2
2018-08-03T08:24:02.366Z,83.2
2018-08-03T08:25:02.322Z,82.7
2018-08-03T08:26:02.465Z,82.6
2018-08-03T08:27:02.485Z,83.7
2018-08-03T08:28:02.387Z,83.5
2018-08-03T08:29:02.339Z,83.6
2018-08-03T08:30:05.811Z,83.7
2018-08-03T08:31:05.743Z,82.7
2018-08-03T08:32:06.524Z,82.4
2018-08-03T08:33:06.446Z,83.1
2018-08-03T08:34:10.210Z,83
2018-08-03T08:35:10.132Z,84
2018-08-03T08:36:10.277Z,83.8
2018-08-03T08:37:10.201Z,84.3
2018-08-03T08:38:10.121Z,83.2
2018-08-03T08:39:10.069Z,83.2
2018-08-03T08:40:09.978Z,83.1
2018-08-03T08:41:09.881Z,84.1
2018-08-03T08:42:10.270Z,84.3
2018-08-03T08:43:13.988Z,85.5
2018-08-03T08:44:13.974Z,84.5
2018-08-03T08:45:13.922Z,84.3
2018-08-03T08:46:13.838Z,84.3
2018-08-03T08:47:14.020Z,83.6
2018-08-03T08:48:13.983Z,83.6
2018-08-03T08:49:14.335Z,83.1
2018-08-03T08:50:14.607Z,83
2018-08-03T08:51:17.452Z,83.1
2018-08-03T08:52:17.952Z,81.9
2018-08-03T08:53:18.156Z,83
2018-08-03T08:54:18.367Z,81
2018-08-03T08:55:18.270Z,81.4
2018-08-03T08:56:18.213Z,81.8
2018-08-03T08:57:18.155Z,81.5
2018-08-03T08:58:18.112Z,82.5
2018-08-03T08:59:20.864Z,82.2
2018-08-03T09:00:21.791Z,81.4
2018-08-03T09:01:21.729Z,81.8
2018-08-03T09:02:22.595Z,80.1
2018-08-03T09:03:22.502Z,80.8
2018-08-03T09:04:22.438Z,81.6
2018-08-03T09:05:22.356Z,80.3
2018-08-03T09:06:22.263Z,79.2
2018-08-03T09:07:22.473Z,79.9
2018-08-03T09:08:22.711Z,80.8
2018-08-03T09:09:22.680Z,80.6
2018-08-03T09:10:22.656Z,81
2018-08-03T09:11:22.610Z,82
2018-08-03T09:12:23.286Z,81.6
2018-08-03T09:13:23.240Z,82.2
2018-08-03T09:14:23.195Z,81.5
2018-08-03T09:15:23.096Z,81.5
2018-08-03T09:16:25.737Z,81.6
2018-08-03T09:17:25.675Z,81.8
2018-08-03T09:18:25.991Z,82.7
2018-08-03T09:19:28.686Z,81.9
2018-08-03T09:20:28.608Z,81
2018-08-03T09:21:28.532Z,80.2
2018-08-03T09:22:29.106Z,80.3
2018-08-03T09:23:29.049Z,81.6
2018-08-03T09:24:29.130Z,80.5
2018-08-03T09:25:30.156Z,80.1
2018-08-03T09:26:30.102Z,81.2
2018-08-03T09:27:32.675Z,81
2018-08-03T09:28:35.876Z,80.8
2018-08-03T09:29:36.897Z,81.6
2018-08-03T09:30:36.848Z,81.7
2018-08-03T09:31:36.761Z,82.4
2018-08-03T09:32:37.155Z,82
2018-08-03T09:33:37.097Z,81.6
2018-08-03T09:34:37.023Z,81.8
2018-08-03T09:35:36.982Z,82.5
2018-08-03T09:36:37.260Z,82.7
2018-08-03T09:37:37.400Z,82.4
2018-08-03T09:38:37.394Z,82.2
2018-08-03T09:39:37.556Z,82.5
2018-08-03T09:40:37.530Z,80.9
2018-08-03T09:41:41.220Z,81.3
2018-08-03T09:42:45.790Z,82
2018-08-03T09:43:49.729Z,82.7
2018-08-03T09:44:49.901Z,82.8
2018-08-03T09:45:55.275Z,81.8
2018-08-03T09:46:55.244Z,81.5
2018-08-03T09:47:55.192Z,81.2
2018-08-03T09:48:55.336Z,80.7
2018-08-03T09:49:59.401Z,82
2018-08-03T09:50:59.336Z,81.7
2018-08-03T09:51:59.731Z,82.4
2018-08-03T09:53:05.156Z,82.4
2018-08-03T09:54:05.103Z,81.8
2018-08-03T09:55:08.631Z,82
2018-08-03T09:56:08.923Z,82.3
2018-08-03T09:57:08.880Z,82
2018-08-03T09:58:09.267Z,81.4
2018-08-03T09:59:11.865Z,82.2
2018-08-03T10:00:11.789Z,82.6
2018-08-03T10:01:14.563Z,83.4
2018-08-03T10:02:18.524Z,82.5
2018-08-03T10:03:18.958Z,81.3
2018-08-03T10:04:19.885Z,81.7
2018-08-03T10:05:22.583Z,83.5
2018-08-03T10:06:22.534Z,82.8
2018-08-03T10:07:22.792Z,82.4
2018-08-03T10:08:22.985Z,82.3
2018-08-03T10:09:22.925Z,82.8
2018-08-03T10:10:22.872Z,82.6
2018-08-03T10:11:23.030Z,81.4
2018-08-03T10:12:23.088Z,81.8
2018-08-03T10:13:23.838Z,81.6
2018-08-03T10:14:23.745Z,81.7
2018-08-03T10:15:23.782Z,81.9
2018-08-03T10:16:23.761Z,83.2
2018-08-03T10:17:23.684Z,82.3
2018-08-03T10:18:23.609Z,82.6
2018-08-03T10:19:23.748Z,83.5
2018-08-03T10:20:23.651Z,83.2
2018-08-03T10:21:23.575Z,82.2
2018-08-03T10:22:23.722Z,81.1
2018-08-03T10:23:24.496Z,81.5
2018-08-03T10:24:24.426Z,80.4
2018-08-03T10:25:24.591Z,81.1
2018-08-03T10:26:24.489Z,82.4
2018-08-03T10:27:24.418Z,81.8
2018-08-03T10:28:24.350Z,81.9
2018-08-03T10:29:24.267Z,81
2018-08-03T10:30:24.185Z,80.4
2018-08-03T10:31:24.092Z,80.8
2018-08-03T10:32:24.031Z,80.8
2018-08-03T10:33:24.395Z,81.5
2018-08-03T10:34:24.334Z,82.7
2018-08-03T10:35:24.254Z,82.5
2018-08-03T10:36:24.165Z,81.9
2018-08-03T10:37:24.335Z,81
2018-08-03T10:38:24.248Z,81.3
2018-08-03T10:39:24.145Z,81.8
2018-08-03T10:40:24.059Z,82.1
2018-08-03T10:41:23.964Z,83.1
2018-08-03T10:42:23.880Z,83.8
2018-08-03T10:43:24.798Z,83
2018-08-03T10:44:24.733Z,82.2
2018-08-03T10:45:24.687Z,82.2
2018-08-03T10:46:24.601Z,83
2018-08-03T10:47:24.511Z,82.6
2018-08-03T10:48:24.440Z,82.8
2018-08-03T10:49:24.348Z,83.1
2018-08-03T10:50:24.250Z,82.8
2018-08-03T10:51:24.453Z,82.5
2018-08-03T10:52:24.565Z,82.9
2018-08-03T10:53:24.936Z,83.5
2018-08-03T10:54:24.847Z,83.6
2018-08-03T10:55:24.800Z,83.7
2018-08-03T10:56:24.718Z,83.1
2018-08-03T10:57:24.646Z,82.6
2018-08-03T10:58:25.106Z,82.5
2018-08-03T10:59:25.441Z,82.7
2018-08-03T11:00:25.583Z,82.5
2018-08-03T11:01:26.029Z,83.4
2018-08-03T11:02:26.387Z,83.6
2018-08-03T11:03:26.752Z,82.5
2018-08-03T11:04:26.902Z,82.8
2018-08-03T11:05:26.819Z,82.7
2018-08-03T11:06:26.746Z,82.6
2018-08-03T11:07:26.885Z,83.1
2018-08-03T11:08:26.797Z,83.6
2018-08-03T11:09:26.710Z,82.8
2018-08-03T11:10:26.620Z,83.3
2018-08-03T11:11:26.531Z,83.4
2018-08-03T11:12:26.445Z,83.3
2018-08-03T11:13:31.951Z,83.1
2018-08-03T11:14:32.334Z,83.3
2018-08-03T11:15:32.233Z,82.6
2018-08-03T11:16:32.143Z,82.6
2018-08-03T11:17:32.044Z,82.7
2018-08-03T11:18:32.978Z,82.7
2018-08-03T11:19:35.830Z,82.9
2018-08-03T11:20:35.736Z,83.4
2018-08-03T11:21:35.672Z,82.5
2018-08-03T11:22:35.571Z,80.7
2018-08-03T11:23:35.929Z,80.4
2018-08-03T11:24:36.093Z,80.9
2018-08-03T11:25:36.001Z,79.9
2018-08-03T11:26:35.906Z,81.4
2018-08-03T11:27:35.817Z,81.3
2018-08-03T11:28:35.919Z,81.3
2018-08-03T11:29:35.995Z,82.1
2018-08-03T11:30:35.959Z,81.3
2018-08-03T11:31:35.890Z,81
2018-08-03T11:32:36.023Z,81
2018-08-03T11:33:39.172Z,80.7
2018-08-03T11:34:42.915Z,80.9
2018-08-03T11:35:43.074Z,81.5
2018-08-03T11:36:42.984Z,81.3
2018-08-03T11:37:42.908Z,81.3
2018-08-03T11:38:43.812Z,81.6
2018-08-03T11:39:43.738Z,80.6
2018-08-03T11:40:43.875Z,79.7
2018-08-03T11:41:44.167Z,80.1
2018-08-03T11:42:44.095Z,79.1
2018-08-03T11:43:44.685Z,79.6
2018-08-03T11:44:44.615Z,78.6
2018-08-03T11:45:44.519Z,79.2
2018-08-03T11:46:44.452Z,78.1
2018-08-03T11:47:44.588Z,78.4
2018-08-03T11:48:44.526Z,77.5
2018-08-03T11:49:44.427Z,78
2018-08-03T11:50:44.350Z,78.1
2018-08-03T11:51:44.308Z,78.3
2018-08-03T11:52:44.225Z,76.9
2018-08-03T11:53:44.566Z,77.5
2018-08-03T11:54:44.477Z,77.1
2018-08-03T11:55:44.380Z,77.1
2018-08-03T11:56:44.327Z,76.3
2018-08-03T11:57:44.285Z,76.6
2018-08-03T11:58:44.206Z,77.4
2018-08-03T11:59:44.133Z,77.7
2018-08-03T12:00:44.230Z,77.1
2018-08-03T12:01:44.301Z,76.2
2018-08-03T12:02:44.248Z,75.8
2018-08-03T12:03:44.642Z,75.3
2018-08-03T12:04:44.551Z,75.9
2018-08-03T12:05:44.450Z,75.8
2018-08-03T12:06:44.382Z,76.4
2018-08-03T12:07:44.288Z,76
2018-08-03T12:08:45.200Z,75.6
2018-08-03T12:09:45.124Z,76.3
2018-08-03T12:10:45.021Z,77.1
2018-08-03T12:11:48.181Z,76.4
2018-08-03T12:12:48.092Z,77.4
2018-08-03T12:13:48.459Z,77.5
2018-08-03T12:14:51.121Z,77.1
2018-08-03T12:15:51.037Z,76.5
2018-08-03T12:16:51.194Z,75.9
2018-08-03T12:17:51.227Z,75.8
2018-08-03T12:18:51.341Z,76
2018-08-03T12:19:52.283Z,76
2018-08-03T12:20:52.415Z,75.4
2018-08-03T12:21:52.351Z,75.1
2018-08-03T12:22:52.285Z,74.7
2018-08-03T12:23:56.131Z,74.1
2018-08-03T12:24:56.424Z,74.3
2018-08-03T12:25:56.328Z,74.5
2018-08-03T12:26:56.491Z,74.6
2018-08-03T12:27:56.393Z,73.8
2018-08-03T12:28:57.301Z,74.2
2018-08-03T12:29:57.211Z,74
2018-08-03T12:30:57.134Z,74.5
2018-08-03T12:31:57.065Z,74.6
2018-08-03T12:32:56.995Z,74.4
2018-08-03T12:33:57.351Z,74.2
2018-08-03T12:34:57.260Z,74.6
2018-08-03T12:35:57.181Z,75.2
2018-08-03T12:36:57.132Z,75.2
2018-08-03T12:37:57.216Z,74.8
2018-08-03T12:38:57.144Z,75.5
2018-08-03T12:39:57.079Z,75.2
2018-08-03T12:40:56.999Z,75.6
2018-08-03T12:41:56.909Z,75.7
2018-08-03T12:42:56.821Z,75.7
2018-08-03T12:43:57.196Z,75.9
2018-08-03T12:44:57.170Z,74.4
2018-08-03T12:46:02.888Z,74.8
2018-08-03T12:47:04.092Z,75.1
2018-08-03T12:48:04.012Z,74.7
2018-08-03T12:49:03.937Z,74.8
2018-08-03T12:50:03.857Z,73.9
2018-08-03T12:51:03.809Z,73.7
2018-08-03T12:52:03.729Z,73.5
2018-08-03T12:53:03.654Z,73.6
2018-08-03T12:54:04.011Z,74.3
2018-08-03T12:55:06.940Z,74.1
2018-08-03T12:56:06.856Z,74.7
2018-08-03T12:57:07.767Z,74.3
2018-08-03T12:58:07.684Z,73.9
2018-08-03T12:59:07.614Z,73.9
2018-08-03T13:00:07.542Z,74.5
2018-08-03T13:01:07.637Z,74.5
2018-08-03T13:02:07.698Z,74.1
2018-08-03T13:03:07.643Z,74.2
2018-08-03T13:04:08.147Z,73.8
2018-08-03T13:05:10.967Z,73.3
2018-08-03T13:06:10.871Z,73.3
2018-08-03T13:07:11.079Z,74.2
2018-08-03T13:08:11.885Z,74.3
2018-08-03T13:09:12.387Z,73.7
2018-08-03T13:10:12.304Z,73.1
2018-08-03T13:11:12.249Z,72.7
2018-08-03T13:12:14.696Z,72.8
2018-08-03T13:13:14.792Z,73.3
2018-08-03T13:14:15.683Z,73.6
2018-08-03T13:15:15.604Z,73.3
2018-08-03T13:16:15.540Z,72.9
2018-08-03T13:17:15.448Z,72.8
2018-08-03T13:18:15.360Z,73.6
2018-08-03T13:19:15.290Z,73.2
2018-08-03T13:20:15.217Z,73.7
2018-08-03T13:21:15.579Z,74
2018-08-03T13:22:15.713Z,74.4
2018-08-03T13:23:15.620Z,74
2018-08-03T13:24:16.016Z,74
2018-08-03T13:25:15.913Z,74.1